sensor_id;sensor_type;location;lat;lon;timestamp;P1;durP1;ratioP1;P2;durP2;ratioP2
23400;SDS011;11873;49.300;8.920;2023-04-30T00:03:08;3.30;;;3.00;;
23400;SDS011;11873;49.300;8.920;2023-04-30T00:08:08;4.60;;;3.40;;
23400;SDS011;11873;49.300;8.920;2023-04-30T00:13:08;3.93;;;3.60;;
23400;SDS011;11873;49.300;8.920;2023-04-30T00:18:08;4.03;;;3.63;;
23400;SDS011;11873;49.300;8.920;2023-04-30T00:23:09;3.93;;;3.53;;
23400;SDS011;11873;49.300;8.920;2023-04-30T00:28:09;4.40;;;4.00;;
23400;SDS011;11873;49.300;8.920;2023-04-30T00:33:09;4.80;;;4.00;;
23400;SDS011;11873;49.300;8.920;2023-04-30T00:38:09;4.63;;;3.53;;
23400;SDS011;11873;49.300;8.920;2023-04-30T00:43:09;5.37;;;3.73;;
23400;SDS011;11873;49.300;8.920;2023-04-30T00:48:09;4.10;;;3.70;;
23400;SDS011;11873;49.300;8.920;2023-04-30T00:53:13;4.03;;;3.73;;
23400;SDS011;11873;49.300;8.920;2023-04-30T00:58:13;4.77;;;4.30;;
23400;SDS011;11873;49.300;8.920;2023-04-30T01:03:13;4.43;;;3.90;;
23400;SDS011;11873;49.300;8.920;2023-04-30T01:08:14;6.50;;;4.80;;
23400;SDS011;11873;49.300;8.920;2023-04-30T01:18:16;5.10;;;4.47;;
23400;SDS011;11873;49.300;8.920;2023-04-30T01:23:18;5.63;;;4.13;;
23400;SDS011;11873;49.300;8.920;2023-04-30T01:28:33;4.57;;;4.00;;
23400;SDS011;11873;49.300;8.920;2023-04-30T01:33:34;4.70;;;4.27;;
23400;SDS011;11873;49.300;8.920;2023-04-30T01:49:24;4.63;;;4.10;;
23400;SDS011;11873;49.300;8.920;2023-04-30T01:59:31;6.20;;;4.13;;
23400;SDS011;11873;49.300;8.920;2023-04-30T02:04:32;6.00;;;4.27;;
23400;SDS011;11873;49.300;8.920;2023-04-30T02:09:32;5.27;;;4.77;;
23400;SDS011;11873;49.300;8.920;2023-04-30T02:14:32;5.17;;;4.70;;
23400;SDS011;11873;49.300;8.920;2023-04-30T02:19:32;5.77;;;5.20;;
23400;SDS011;11873;49.300;8.920;2023-04-30T02:24:32;4.47;;;4.00;;
23400;SDS011;11873;49.300;8.920;2023-04-30T02:29:32;5.70;;;4.57;;
23400;SDS011;11873;49.300;8.920;2023-04-30T02:34:33;5.37;;;4.77;;
23400;SDS011;11873;49.300;8.920;2023-04-30T02:39:33;4.73;;;4.30;;
23400;SDS011;11873;49.300;8.920;2023-04-30T02:44:33;5.37;;;4.23;;
23400;SDS011;11873;49.300;8.920;2023-04-30T02:49:33;4.70;;;4.17;;
23400;SDS011;11873;49.300;8.920;2023-04-30T02:54:33;6.10;;;5.50;;
23400;SDS011;11873;49.300;8.920;2023-04-30T02:59:34;5.40;;;4.90;;
23400;SDS011;11873;49.300;8.920;2023-04-30T03:04:34;5.13;;;4.40;;
23400;SDS011;11873;49.300;8.920;2023-04-30T03:09:35;3.97;;;3.40;;
23400;SDS011;11873;49.300;8.920;2023-04-30T03:14:35;5.83;;;5.03;;
23400;SDS011;11873;49.300;8.920;2023-04-30T03:19:35;5.83;;;5.17;;
23400;SDS011;11873;49.300;8.920;2023-04-30T03:24:35;6.90;;;5.57;;
23400;SDS011;11873;49.300;8.920;2023-04-30T03:29:35;7.57;;;5.90;;
23400;SDS011;11873;49.300;8.920;2023-04-30T03:34:36;5.80;;;5.20;;
23400;SDS011;11873;49.300;8.920;2023-04-30T03:39:37;6.03;;;5.10;;
23400;SDS011;11873;49.300;8.920;2023-04-30T03:44:37;6.23;;;4.90;;
23400;SDS011;11873;49.300;8.920;2023-04-30T03:49:37;5.83;;;5.23;;
23400;SDS011;11873;49.300;8.920;2023-04-30T03:54:37;7.33;;;5.00;;
23400;SDS011;11873;49.300;8.920;2023-04-30T03:59:37;5.30;;;4.77;;
23400;SDS011;11873;49.300;8.920;2023-04-30T04:04:37;5.53;;;5.03;;
23400;SDS011;11873;49.300;8.920;2023-04-30T04:09:38;5.90;;;5.23;;
23400;SDS011;11873;49.300;8.920;2023-04-30T04:14:38;8.03;;;6.20;;
23400;SDS011;11873;49.300;8.920;2023-04-30T04:19:38;6.30;;;5.70;;
23400;SDS011;11873;49.300;8.920;2023-04-30T04:24:38;5.63;;;5.10;;
23400;SDS011;11873;49.300;8.920;2023-04-30T04:29:38;5.60;;;5.10;;
23400;SDS011;11873;49.300;8.920;2023-04-30T04:34:39;5.60;;;5.10;;
23400;SDS011;11873;49.300;8.920;2023-04-30T04:39:39;6.27;;;5.67;;
23400;SDS011;11873;49.300;8.920;2023-04-30T04:44:39;5.60;;;4.93;;
23400;SDS011;11873;49.300;8.920;2023-04-30T04:49:39;5.07;;;4.60;;
23400;SDS011;11873;49.300;8.920;2023-04-30T04:54:39;5.53;;;5.03;;
23400;SDS011;11873;49.300;8.920;2023-04-30T04:59:39;6.57;;;5.40;;
23400;SDS011;11873;49.300;8.920;2023-04-30T05:04:40;5.40;;;4.90;;
23400;SDS011;11873;49.300;8.920;2023-04-30T05:09:40;5.40;;;4.73;;
23400;SDS011;11873;49.300;8.920;2023-04-30T05:14:40;4.87;;;4.47;;
23400;SDS011;11873;49.300;8.920;2023-04-30T05:19:40;7.10;;;5.80;;
23400;SDS011;11873;49.300;8.920;2023-04-30T05:24:40;6.30;;;5.43;;
23400;SDS011;11873;49.300;8.920;2023-04-30T05:29:41;6.47;;;5.73;;
23400;SDS011;11873;49.300;8.920;2023-04-30T05:34:41;6.57;;;5.13;;
23400;SDS011;11873;49.300;8.920;2023-04-30T05:39:41;5.47;;;4.60;;
23400;SDS011;11873;49.300;8.920;2023-04-30T05:44:41;5.17;;;3.80;;
23400;SDS011;11873;49.300;8.920;2023-04-30T05:49:41;7.23;;;6.10;;
23400;SDS011;11873;49.300;8.920;2023-04-30T05:54:42;7.77;;;5.53;;
23400;SDS011;11873;49.300;8.920;2023-04-30T05:59:42;5.17;;;4.63;;
23400;SDS011;11873;49.300;8.920;2023-04-30T06:04:42;7.63;;;6.40;;
23400;SDS011;11873;49.300;8.920;2023-04-30T06:09:42;9.97;;;5.87;;
23400;SDS011;11873;49.300;8.920;2023-04-30T06:14:42;5.77;;;4.77;;
23400;SDS011;11873;49.300;8.920;2023-04-30T06:19:42;8.43;;;5.17;;
23400;SDS011;11873;49.300;8.920;2023-04-30T06:24:43;3.97;;;3.67;;
23400;SDS011;11873;49.300;8.920;2023-04-30T06:29:43;4.97;;;4.27;;
23400;SDS011;11873;49.300;8.920;2023-04-30T06:34:43;5.30;;;4.80;;
23400;SDS011;11873;49.300;8.920;2023-04-30T06:39:43;4.50;;;4.00;;
23400;SDS011;11873;49.300;8.920;2023-04-30T06:44:43;4.03;;;3.73;;
23400;SDS011;11873;49.300;8.920;2023-04-30T06:49:43;4.20;;;3.87;;
23400;SDS011;11873;49.300;8.920;2023-04-30T06:54:43;4.73;;;4.30;;
23400;SDS011;11873;49.300;8.920;2023-04-30T06:59:44;6.33;;;4.60;;
23400;SDS011;11873;49.300;8.920;2023-04-30T07:04:44;3.60;;;3.27;;
23400;SDS011;11873;49.300;8.920;2023-04-30T07:09:44;1.70;;;1.40;;
23400;SDS011;11873;49.300;8.920;2023-04-30T07:14:44;4.80;;;4.30;;
23400;SDS011;11873;49.300;8.920;2023-04-30T07:19:44;5.73;;;5.13;;
23400;SDS011;11873;49.300;8.920;2023-04-30T07:24:44;7.37;;;5.73;;
23400;SDS011;11873;49.300;8.920;2023-04-30T07:29:45;4.63;;;3.97;;
23400;SDS011;11873;49.300;8.920;2023-04-30T07:34:45;0.63;;;0.63;;
23400;SDS011;11873;49.300;8.920;2023-04-30T07:39:45;6.63;;;4.50;;
23400;SDS011;11873;49.300;8.920;2023-04-30T07:44:45;6.07;;;3.87;;
23400;SDS011;11873;49.300;8.920;2023-04-30T07:49:46;7.30;;;5.00;;
23400;SDS011;11873;49.300;8.920;2023-04-30T07:54:46;4.57;;;4.13;;
23400;SDS011;11873;49.300;8.920;2023-04-30T07:59:46;7.73;;;5.57;;
23400;SDS011;11873;49.300;8.920;2023-04-30T08:04:46;3.90;;;3.60;;
23400;SDS011;11873;49.300;8.920;2023-04-30T08:09:47;4.93;;;3.77;;
23400;SDS011;11873;49.300;8.920;2023-04-30T08:14:47;1.33;;;1.27;;
23400;SDS011;11873;49.300;8.920;2023-04-30T08:19:47;3.77;;;3.47;;
23400;SDS011;11873;49.300;8.920;2023-04-30T08:24:47;4.83;;;3.70;;
23400;SDS011;11873;49.300;8.920;2023-04-30T08:29:47;4.90;;;3.70;;
23400;SDS011;11873;49.300;8.920;2023-04-30T08:34:47;0.60;;;0.60;;
23400;SDS011;11873;49.300;8.920;2023-04-30T08:39:48;2.67;;;2.43;;
23400;SDS011;11873;49.300;8.920;2023-04-30T08:44:48;3.87;;;3.27;;
23400;SDS011;11873;49.300;8.920;2023-04-30T08:49:48;1.43;;;1.33;;
23400;SDS011;11873;49.300;8.920;2023-04-30T08:54:49;3.43;;;3.13;;
23400;SDS011;11873;49.300;8.920;2023-04-30T08:59:49;2.63;;;2.43;;
23400;SDS011;11873;49.300;8.920;2023-04-30T09:04:49;4.80;;;4.30;;
23400;SDS011;11873;49.300;8.920;2023-04-30T09:09:52;4.37;;;3.10;;
23400;SDS011;11873;49.300;8.920;2023-04-30T09:20:08;2.57;;;2.37;;
23400;SDS011;11873;49.300;8.920;2023-04-30T09:25:09;1.47;;;1.37;;
23400;SDS011;11873;49.300;8.920;2023-04-30T09:30:09;2.30;;;2.10;;
23400;SDS011;11873;49.300;8.920;2023-04-30T09:35:29;2.50;;;1.60;;
23400;SDS011;11873;49.300;8.920;2023-04-30T09:45:39;0.43;;;0.43;;
23400;SDS011;11873;49.300;8.920;2023-04-30T09:50:39;1.97;;;1.80;;
23400;SDS011;11873;49.300;8.920;2023-04-30T09:55:43;2.60;;;2.10;;
23400;SDS011;11873;49.300;8.920;2023-04-30T10:00:44;1.60;;;1.50;;
23400;SDS011;11873;49.300;8.920;2023-04-30T10:05:45;2.70;;;2.23;;
23400;SDS011;11873;49.300;8.920;2023-04-30T10:10:46;2.13;;;1.93;;
23400;SDS011;11873;49.300;8.920;2023-04-30T10:15:50;1.17;;;1.10;;
23400;SDS011;11873;49.300;8.920;2023-04-30T10:20:53;1.73;;;1.60;;
23400;SDS011;11873;49.300;8.920;2023-04-30T10:25:54;2.60;;;2.40;;
23400;SDS011;11873;49.300;8.920;2023-04-30T10:30:55;2.70;;;2.03;;
23400;SDS011;11873;49.300;8.920;2023-04-30T10:35:57;3.80;;;2.93;;
23400;SDS011;11873;49.300;8.920;2023-04-30T10:40:58;2.23;;;2.03;;
23400;SDS011;11873;49.300;8.920;2023-04-30T10:45:58;0.70;;;0.67;;
23400;SDS011;11873;49.300;8.920;2023-04-30T10:51:00;1.70;;;1.60;;
23400;SDS011;11873;49.300;8.920;2023-04-30T10:56:01;2.50;;;2.30;;
23400;SDS011;11873;49.300;8.920;2023-04-30T11:01:11;4.30;;;2.43;;
23400;SDS011;11873;49.300;8.920;2023-04-30T11:06:12;4.50;;;2.23;;
23400;SDS011;11873;49.300;8.920;2023-04-30T11:11:18;0.60;;;0.60;;
23400;SDS011;11873;49.300;8.920;2023-04-30T11:16:18;2.63;;;2.40;;
23400;SDS011;11873;49.300;8.920;2023-04-30T11:21:19;3.00;;;2.70;;
23400;SDS011;11873;49.300;8.920;2023-04-30T11:26:19;3.30;;;1.80;;
23400;SDS011;11873;49.300;8.920;2023-04-30T11:31:19;2.30;;;2.20;;
23400;SDS011;11873;49.300;8.920;2023-04-30T11:36:19;1.60;;;1.50;;
23400;SDS011;11873;49.300;8.920;2023-04-30T11:41:21;3.07;;;2.00;;
23400;SDS011;11873;49.300;8.920;2023-04-30T11:46:21;2.50;;;2.30;;
23400;SDS011;11873;49.300;8.920;2023-04-30T11:51:21;1.77;;;1.67;;
23400;SDS011;11873;49.300;8.920;2023-04-30T11:56:22;2.17;;;1.80;;
23400;SDS011;11873;49.300;8.920;2023-04-30T12:01:25;2.23;;;2.13;;
23400;SDS011;11873;49.300;8.920;2023-04-30T12:06:26;1.90;;;1.80;;
23400;SDS011;11873;49.300;8.920;2023-04-30T12:11:27;2.30;;;2.10;;
23400;SDS011;11873;49.300;8.920;2023-04-30T12:21:38;1.50;;;1.40;;
23400;SDS011;11873;49.300;8.920;2023-04-30T12:26:39;1.90;;;1.80;;
23400;SDS011;11873;49.300;8.920;2023-04-30T12:31:39;1.30;;;1.30;;
23400;SDS011;11873;49.300;8.920;2023-04-30T12:36:40;1.73;;;1.63;;
23400;SDS011;11873;49.300;8.920;2023-04-30T12:41:41;2.50;;;2.13;;
23400;SDS011;11873;49.300;8.920;2023-04-30T12:46:41;1.80;;;1.70;;
23400;SDS011;11873;49.300;8.920;2023-04-30T12:51:42;1.80;;;1.70;;
23400;SDS011;11873;49.300;8.920;2023-04-30T12:56:58;2.23;;;2.13;;
23400;SDS011;11873;49.300;8.920;2023-04-30T13:02:11;5.13;;;2.10;;
23400;SDS011;11873;49.300;8.920;2023-04-30T13:07:12;3.17;;;2.67;;
23400;SDS011;11873;49.300;8.920;2023-04-30T13:12:12;3.13;;;2.10;;
23400;SDS011;11873;49.300;8.920;2023-04-30T13:17:12;4.53;;;2.10;;
23400;SDS011;11873;49.300;8.920;2023-04-30T13:22:12;0.50;;;0.50;;
23400;SDS011;11873;49.300;8.920;2023-04-30T13:27:12;0.43;;;0.43;;
23400;SDS011;11873;49.300;8.920;2023-04-30T13:32:12;1.90;;;1.70;;
23400;SDS011;11873;49.300;8.920;2023-04-30T13:37:13;1.90;;;1.80;;
23400;SDS011;11873;49.300;8.920;2023-04-30T13:42:13;2.00;;;1.80;;
23400;SDS011;11873;49.300;8.920;2023-04-30T13:47:13;3.43;;;2.80;;
23400;SDS011;11873;49.300;8.920;2023-04-30T13:52:13;2.47;;;1.70;;
23400;SDS011;11873;49.300;8.920;2023-04-30T13:57:14;1.00;;;1.00;;
23400;SDS011;11873;49.300;8.920;2023-04-30T14:02:14;1.90;;;1.80;;
23400;SDS011;11873;49.300;8.920;2023-04-30T14:07:14;0.97;;;0.97;;
23400;SDS011;11873;49.300;8.920;2023-04-30T14:12:14;1.10;;;1.10;;
23400;SDS011;11873;49.300;8.920;2023-04-30T14:17:14;1.60;;;1.50;;
23400;SDS011;11873;49.300;8.920;2023-04-30T14:22:15;1.93;;;1.73;;
23400;SDS011;11873;49.300;8.920;2023-04-30T14:27:15;1.77;;;1.67;;
23400;SDS011;11873;49.300;8.920;2023-04-30T14:32:15;1.97;;;1.50;;
23400;SDS011;11873;49.300;8.920;2023-04-30T14:37:15;1.80;;;1.50;;
23400;SDS011;11873;49.300;8.920;2023-04-30T14:42:15;2.33;;;1.80;;
23400;SDS011;11873;49.300;8.920;2023-04-30T14:47:16;2.33;;;2.13;;
23400;SDS011;11873;49.300;8.920;2023-04-30T14:52:16;2.10;;;1.90;;
23400;SDS011;11873;49.300;8.920;2023-04-30T14:57:16;1.07;;;1.00;;
23400;SDS011;11873;49.300;8.920;2023-04-30T15:02:16;1.73;;;1.27;;
23400;SDS011;11873;49.300;8.920;2023-04-30T15:07:16;1.40;;;1.30;;
23400;SDS011;11873;49.300;8.920;2023-04-30T15:12:17;0.60;;;0.60;;
23400;SDS011;11873;49.300;8.920;2023-04-30T15:17:17;1.23;;;1.23;;
23400;SDS011;11873;49.300;8.920;2023-04-30T15:22:17;2.50;;;1.67;;
23400;SDS011;11873;49.300;8.920;2023-04-30T15:27:17;2.67;;;1.57;;
23400;SDS011;11873;49.300;8.920;2023-04-30T15:32:18;1.13;;;1.13;;
23400;SDS011;11873;49.300;8.920;2023-04-30T15:37:18;1.43;;;1.37;;
23400;SDS011;11873;49.300;8.920;2023-04-30T15:42:18;3.93;;;1.87;;
23400;SDS011;11873;49.300;8.920;2023-04-30T15:47:18;1.65;;;1.55;;
23400;SDS011;11873;49.300;8.920;2023-04-30T15:52:18;2.53;;;1.80;;
23400;SDS011;11873;49.300;8.920;2023-04-30T15:57:19;1.40;;;1.30;;
23400;SDS011;11873;49.300;8.920;2023-04-30T16:02:19;1.80;;;1.70;;
23400;SDS011;11873;49.300;8.920;2023-04-30T16:07:19;1.23;;;1.13;;
23400;SDS011;11873;49.300;8.920;2023-04-30T16:12:19;1.60;;;1.50;;
23400;SDS011;11873;49.300;8.920;2023-04-30T16:17:20;1.60;;;1.50;;
23400;SDS011;11873;49.300;8.920;2023-04-30T16:22:20;1.00;;;1.00;;
23400;SDS011;11873;49.300;8.920;2023-04-30T16:27:20;1.60;;;1.50;;
23400;SDS011;11873;49.300;8.920;2023-04-30T16:32:20;1.73;;;1.60;;
23400;SDS011;11873;49.300;8.920;2023-04-30T16:37:20;1.40;;;1.30;;
23400;SDS011;11873;49.300;8.920;2023-04-30T16:42:20;1.20;;;1.10;;
23400;SDS011;11873;49.300;8.920;2023-04-30T16:47:21;1.93;;;1.70;;
23400;SDS011;11873;49.300;8.920;2023-04-30T16:52:21;1.73;;;1.63;;
23400;SDS011;11873;49.300;8.920;2023-04-30T16:57:21;1.43;;;1.30;;
23400;SDS011;11873;49.300;8.920;2023-04-30T17:02:22;2.53;;;1.67;;
23400;SDS011;11873;49.300;8.920;2023-04-30T17:07:22;5.30;;;1.50;;
23400;SDS011;11873;49.300;8.920;2023-04-30T17:12:22;1.63;;;1.53;;
23400;SDS011;11873;49.300;8.920;2023-04-30T17:17:22;2.83;;;1.30;;
23400;SDS011;11873;49.300;8.920;2023-04-30T17:22:22;1.60;;;1.50;;
23400;SDS011;11873;49.300;8.920;2023-04-30T17:27:22;1.73;;;1.53;;
23400;SDS011;11873;49.300;8.920;2023-04-30T17:32:23;1.77;;;1.67;;
23400;SDS011;11873;49.300;8.920;2023-04-30T17:37:23;2.00;;;1.73;;
23400;SDS011;11873;49.300;8.920;2023-04-30T17:42:23;1.50;;;1.40;;
23400;SDS011;11873;49.300;8.920;2023-04-30T17:47:23;1.73;;;1.63;;
23400;SDS011;11873;49.300;8.920;2023-04-30T17:52:23;1.70;;;1.60;;
23400;SDS011;11873;49.300;8.920;2023-04-30T17:57:24;1.60;;;1.50;;
23400;SDS011;11873;49.300;8.920;2023-04-30T18:02:24;1.60;;;1.50;;
23400;SDS011;11873;49.300;8.920;2023-04-30T18:07:24;2.43;;;1.93;;
23400;SDS011;11873;49.300;8.920;2023-04-30T18:12:24;2.80;;;1.80;;
23400;SDS011;11873;49.300;8.920;2023-04-30T18:17:24;2.07;;;1.73;;
23400;SDS011;11873;49.300;8.920;2023-04-30T18:22:24;2.47;;;2.27;;
23400;SDS011;11873;49.300;8.920;2023-04-30T18:27:25;2.70;;;2.00;;
23400;SDS011;11873;49.300;8.920;2023-04-30T18:32:25;2.33;;;1.93;;
23400;SDS011;11873;49.300;8.920;2023-04-30T18:37:25;2.30;;;2.20;;
23400;SDS011;11873;49.300;8.920;2023-04-30T18:42:25;2.70;;;2.50;;
23400;SDS011;11873;49.300;8.920;2023-04-30T18:47:25;3.63;;;3.30;;
23400;SDS011;11873;49.300;8.920;2023-04-30T18:52:25;8.30;;;3.83;;
23400;SDS011;11873;49.300;8.920;2023-04-30T18:57:26;2.67;;;2.47;;
23400;SDS011;11873;49.300;8.920;2023-04-30T19:02:26;2.90;;;2.70;;
23400;SDS011;11873;49.300;8.920;2023-04-30T19:07:26;3.43;;;3.17;;
23400;SDS011;11873;49.300;8.920;2023-04-30T19:12:26;5.90;;;5.27;;
23400;SDS011;11873;49.300;8.920;2023-04-30T19:17:26;13.90;;;8.47;;
23400;SDS011;11873;49.300;8.920;2023-04-30T19:22:27;17.43;;;9.13;;
23400;SDS011;11873;49.300;8.920;2023-04-30T19:27:27;6.43;;;4.60;;
23400;SDS011;11873;49.300;8.920;2023-04-30T19:32:27;3.60;;;3.30;;
23400;SDS011;11873;49.300;8.920;2023-04-30T19:37:27;3.03;;;2.83;;
23400;SDS011;11873;49.300;8.920;2023-04-30T19:42:27;4.50;;;2.77;;
23400;SDS011;11873;49.300;8.920;2023-04-30T19:47:27;3.33;;;3.03;;
23400;SDS011;11873;49.300;8.920;2023-04-30T19:52:27;3.33;;;3.03;;
23400;SDS011;11873;49.300;8.920;2023-04-30T19:57:28;4.93;;;4.33;;
23400;SDS011;11873;49.300;8.920;2023-04-30T20:02:28;3.67;;;3.37;;
23400;SDS011;11873;49.300;8.920;2023-04-30T20:07:28;3.97;;;3.60;;
23400;SDS011;11873;49.300;8.920;2023-04-30T20:12:28;4.93;;;3.93;;
23400;SDS011;11873;49.300;8.920;2023-04-30T20:17:28;5.27;;;4.47;;
23400;SDS011;11873;49.300;8.920;2023-04-30T20:22:29;4.73;;;3.90;;
23400;SDS011;11873;49.300;8.920;2023-04-30T20:27:29;5.47;;;4.10;;
23400;SDS011;11873;49.300;8.920;2023-04-30T20:32:29;8.37;;;5.63;;
23400;SDS011;11873;49.300;8.920;2023-04-30T20:37:29;4.20;;;3.33;;
23400;SDS011;11873;49.300;8.920;2023-04-30T20:42:30;2.67;;;2.47;;
23400;SDS011;11873;49.300;8.920;2023-04-30T20:47:30;3.20;;;2.90;;
23400;SDS011;11873;49.300;8.920;2023-04-30T20:52:30;2.97;;;2.77;;
23400;SDS011;11873;49.300;8.920;2023-04-30T20:57:30;3.63;;;2.70;;
23400;SDS011;11873;49.300;8.920;2023-04-30T21:02:30;3.30;;;2.80;;
23400;SDS011;11873;49.300;8.920;2023-04-30T21:07:31;4.83;;;3.23;;
23400;SDS011;11873;49.300;8.920;2023-04-30T21:12:31;3.83;;;3.43;;
23400;SDS011;11873;49.300;8.920;2023-04-30T21:17:31;4.53;;;3.40;;
23400;SDS011;11873;49.300;8.920;2023-04-30T21:22:32;4.33;;;3.10;;
23400;SDS011;11873;49.300;8.920;2023-04-30T21:27:32;3.70;;;3.40;;
23400;SDS011;11873;49.300;8.920;2023-04-30T21:32:32;4.03;;;3.73;;
23400;SDS011;11873;49.300;8.920;2023-04-30T21:37:32;5.05;;;4.55;;
23400;SDS011;11873;49.300;8.920;2023-04-30T21:42:32;5.80;;;4.47;;
23400;SDS011;11873;49.300;8.920;2023-04-30T21:47:32;7.00;;;5.13;;
23400;SDS011;11873;49.300;8.920;2023-04-30T21:52:33;4.50;;;4.10;;
23400;SDS011;11873;49.300;8.920;2023-04-30T21:57:33;4.60;;;4.20;;
23400;SDS011;11873;49.300;8.920;2023-04-30T22:02:33;3.53;;;3.27;;
23400;SDS011;11873;49.300;8.920;2023-04-30T22:07:33;3.50;;;3.30;;
23400;SDS011;11873;49.300;8.920;2023-04-30T22:12:33;4.40;;;3.70;;
23400;SDS011;11873;49.300;8.920;2023-04-30T22:17:33;4.47;;;3.70;;
23400;SDS011;11873;49.300;8.920;2023-04-30T22:22:34;3.53;;;3.23;;
23400;SDS011;11873;49.300;8.920;2023-04-30T22:27:34;3.97;;;3.57;;
23400;SDS011;11873;49.300;8.920;2023-04-30T22:32:34;4.10;;;3.53;;
23400;SDS011;11873;49.300;8.920;2023-04-30T22:37:34;4.67;;;3.40;;
23400;SDS011;11873;49.300;8.920;2023-04-30T22:42:34;4.30;;;3.90;;
23400;SDS011;11873;49.300;8.920;2023-04-30T22:47:35;4.17;;;3.70;;
23400;SDS011;11873;49.300;8.920;2023-04-30T22:52:35;4.03;;;3.73;;
23400;SDS011;11873;49.300;8.920;2023-04-30T22:57:35;4.30;;;3.90;;
23400;SDS011;11873;49.300;8.920;2023-04-30T23:02:36;10.57;;;3.80;;
23400;SDS011;11873;49.300;8.920;2023-04-30T23:07:36;4.03;;;3.73;;
23400;SDS011;11873;49.300;8.920;2023-04-30T23:12:36;5.43;;;4.57;;
23400;SDS011;11873;49.300;8.920;2023-04-30T23:17:36;3.77;;;3.30;;
23400;SDS011;11873;49.300;8.920;2023-04-30T23:22:36;4.00;;;3.67;;
23400;SDS011;11873;49.300;8.920;2023-04-30T23:27:36;4.23;;;3.90;;
23400;SDS011;11873;49.300;8.920;2023-04-30T23:32:37;4.70;;;4.23;;
23400;SDS011;11873;49.300;8.920;2023-04-30T23:37:37;7.00;;;4.20;;
23400;SDS011;11873;49.300;8.920;2023-04-30T23:42:37;4.40;;;3.93;;
23400;SDS011;11873;49.300;8.920;2023-04-30T23:47:37;5.30;;;4.20;;
23400;SDS011;11873;49.300;8.920;2023-04-30T23:52:37;5.63;;;3.90;;
23400;SDS011;11873;49.300;8.920;2023-04-30T23:57:37;4.50;;;3.70;;
